Harpster, Ohio
Current Conditions -  °F | °C
As of 12:53 PM on Monday 26 Jan 2015 (Local Time) from KMNN Reporting Station
Overcast Overcast  
Wind Chill:   Ceiling: 1000
Heat Index: 18°   Visibility: 8mi
Dew Point: 12°   Wind: 14mph
Humidity: 78%   Direction: 20°NNE
Pressure: 29.85"   Gusts: NA
Location:  40.74°N, 83.25°W
Report Text: KMNN 261753Z AUTO 02012KT 8SM OVC010 M08/M11 A2985 RMK AO2 SLP124 60000 T10781111 11072 21089 50001 TSNO $
Loading
Personal Weather Stations






























Interactive Weather Map New forecast layout! Learn more

10-Day Weather Forecast

Advertisements
Track Severe Weather on mobile